»·PEaware :: N2612J 1L1-2O7

N2612J :: 1L1-2O7

FLIGHT INFORMATION

Flight Status: Arrived
Operator: Privately registered:
United States
More flights under this callsign
Pilot: Andrew F. (4171)
Aircraft: DEHAVILLAND DH-6 TWIN OTTER
(DHC6)
More flights by this aircraft type
Origin: 1L1 Lincoln Co
United States
Destination: 2O7 Independence
United States
More flights between these airports :: More routes between these airports
Route: DIRECT
File this flight plan on PilotEdge
Remarks:
Altitude:
(Current/Filed)
10,500ft
Speed:
(Current/Filed)
140kts
Departed: 01-Apr-16 05:17 PM
Arrived: 01-Apr-16 06:55 PM
Distance/Time
Traveled:
190nm/1:38
Distance/Time
To Go:
Arrived

Flight Plot

Page will automatically refresh every two minutes.


Map Options




Map Legend


Flown Route
Filed Route
Departure Airport
Arrival Airport
Navaid (VOR, NDB)
Fix

Horizontal Profiles

Position Reports

Time Latitude Longitude Heading Altitude Ground
Speed
01-Apr-16 17:08 37.793070 -114.419886 190 4837ft 0kts
01-Apr-16 17:09 37.791104 -114.421239 182 4837ft 44kts
01-Apr-16 17:10 37.781391 -114.422308 302 4837ft 0kts
01-Apr-16 17:11 37.782185 -114.422225 7 4837ft 38kts
01-Apr-16 17:12 37.802872 -114.425940 288 5660ft 92kts
01-Apr-16 17:13 37.795113 -114.460284 245 6976ft 108kts
01-Apr-16 17:14 37.785663 -114.500083 255 8206ft 121kts
01-Apr-16 17:15 37.784090 -114.539792 277 9267ft 106kts
01-Apr-16 17:16 37.786983 -114.578005 281 10076ft 112kts
01-Apr-16 17:17 37.790640 -114.620209 281 10534ft 139kts
01-Apr-16 17:18 37.796647 -114.674216 282 10492ft 158kts
01-Apr-16 17:19 37.802446 -114.726900 282 10502ft 147kts
01-Apr-16 17:20 37.807771 -114.777839 281 10505ft 144kts
01-Apr-16 17:21 37.812915 -114.828864 281 10505ft 147kts
01-Apr-16 17:22 37.818004 -114.879679 282 10511ft 144kts
01-Apr-16 17:23 37.823745 -114.931421 282 10497ft 149kts
01-Apr-16 17:24 37.829748 -114.985017 282 10488ft 155kts
01-Apr-16 17:25 37.835443 -115.036812 281 10507ft 144kts
01-Apr-16 17:26 37.840060 -115.079906 281 10499ft 151kts
01-Apr-16 17:27 37.845589 -115.131049 282 10492ft 142kts
01-Apr-16 17:28 37.852438 -115.190205 282 10480ft 147kts
01-Apr-16 17:29 37.857498 -115.233464 282 10492ft 151kts
01-Apr-16 17:30 37.863556 -115.285857 282 10495ft 153kts
01-Apr-16 17:31 37.869414 -115.337874 281 10495ft 148kts
01-Apr-16 17:32 37.875191 -115.389498 282 10498ft 149kts
01-Apr-16 17:33 37.881612 -115.441723 283 10495ft 153kts
01-Apr-16 17:34 37.887704 -115.493399 282 10493ft 146kts
01-Apr-16 17:35 37.893786 -115.545569 282 10488ft 155kts
01-Apr-16 17:36 37.900151 -115.599108 281 10488ft 155kts
01-Apr-16 17:37 37.906901 -115.651019 283 10503ft 147kts
01-Apr-16 17:38 37.913431 -115.703320 282 10495ft 154kts
01-Apr-16 17:39 37.919614 -115.754327 282 10501ft 141kts
01-Apr-16 17:40 37.925413 -115.804025 281 10504ft 143kts
01-Apr-16 17:41 37.926113 -115.855393 277 10499ft 147kts
01-Apr-16 17:42 37.931490 -115.905149 284 10480ft 139kts
01-Apr-16 17:43 37.939534 -115.953331 286 10498ft 139kts
01-Apr-16 17:44 37.947190 -116.001829 283 10500ft 142kts
01-Apr-16 17:45 37.952569 -116.052300 279 10501ft 146kts
01-Apr-16 17:46 37.955242 -116.102685 276 10507ft 141kts
01-Apr-16 17:47 37.957605 -116.154417 277 10499ft 152kts
01-Apr-16 17:48 37.960821 -116.206646 278 10501ft 147kts
01-Apr-16 17:49 37.965232 -116.259230 280 10496ft 154kts
01-Apr-16 17:50 37.970610 -116.312719 280 10493ft 154kts
01-Apr-16 17:51 37.975677 -116.366151 280 10494ft 154kts
01-Apr-16 17:52 37.980363 -116.419188 279 10499ft 153kts
01-Apr-16 17:53 37.984982 -116.472085 277 10503ft 151kts
01-Apr-16 17:54 37.988018 -116.524408 277 10506ft 149kts
01-Apr-16 17:55 37.991925 -116.577319 279 10500ft 154kts
01-Apr-16 17:56 37.997076 -116.628787 281 10509ft 143kts
01-Apr-16 17:57 38.001950 -116.681067 278 10501ft 154kts
01-Apr-16 17:58 38.005745 -116.734191 278 10507ft 150kts
01-Apr-16 17:59 38.010037 -116.787147 279 10501ft 152kts
01-Apr-16 18:00 38.014633 -116.840192 279 10503ft 152kts
01-Apr-16 18:01 38.019194 -116.893304 279 10499ft 152kts
01-Apr-16 18:02 38.023194 -116.944179 279 10523ft 140kts
01-Apr-16 18:03 38.027082 -116.994412 277 10517ft 145kts
01-Apr-16 18:04 38.016348 -117.041646 238 10525ft 150kts
01-Apr-16 18:05 37.994080 -117.085499 240 10527ft 145kts
01-Apr-16 18:06 37.969669 -117.125954 231 10523ft 144kts
01-Apr-16 18:07 37.942519 -117.166551 231 10481ft 153kts
01-Apr-16 18:08 37.916080 -117.206251 231 10496ft 144kts
01-Apr-16 18:09 37.890302 -117.244973 231 10496ft 143kts
01-Apr-16 18:10 37.864559 -117.283855 231 10492ft 144kts
01-Apr-16 18:11 37.838388 -117.323549 232 10492ft 149kts
01-Apr-16 18:12 37.811310 -117.364099 231 10488ft 151kts
01-Apr-16 18:13 37.782871 -117.406608 230 10465ft 161kts
01-Apr-16 18:14 37.754633 -117.448598 230 10474ft 154kts
01-Apr-16 18:15 37.727273 -117.489470 231 10474ft 151kts
01-Apr-16 18:16 37.698961 -117.532457 232 10448ft 162kts
01-Apr-16 18:17 37.663833 -117.568670 218 10447ft 162kts
01-Apr-16 18:18 37.631076 -117.604321 226 10458ft 152kts
01-Apr-16 18:19 37.603456 -117.643919 233 10469ft 149kts
01-Apr-16 18:20 37.578005 -117.686931 235 10457ft 154kts
01-Apr-16 18:21 37.551161 -117.731693 233 10441ft 161kts
01-Apr-16 18:22 37.523531 -117.773460 229 10455ft 151kts
01-Apr-16 18:23 37.494494 -117.812605 227 10448ft 152kts
01-Apr-16 18:24 37.469833 -117.844754 227 10450ft 154kts
01-Apr-16 18:25 37.440798 -117.883660 228 10445ft 150kts
01-Apr-16 18:26 37.412123 -117.924425 230 10442ft 161kts
01-Apr-16 18:27 37.383842 -117.967573 232 10430ft 160kts
01-Apr-16 18:28 37.355567 -118.008630 227 10418ft 152kts
01-Apr-16 18:29 37.323950 -118.045000 220 10411ft 156kts
01-Apr-16 18:30 37.288680 -118.076562 213 10414ft 156kts
01-Apr-16 18:31 37.250363 -118.102652 206 10410ft 158kts
01-Apr-16 18:32 37.209163 -118.122810 197 10407ft 162kts
01-Apr-16 18:33 37.165176 -118.134777 188 10397ft 165kts
01-Apr-16 18:34 37.120695 -118.139393 181 10408ft 158kts
01-Apr-16 18:35 37.076155 -118.142047 185 10403ft 164kts
01-Apr-16 18:36 37.032732 -118.146554 187 10401ft 146kts
01-Apr-16 18:37 36.992153 -118.162446 210 9465ft 155kts
01-Apr-16 18:38 36.956433 -118.190405 210 8480ft 145kts
01-Apr-16 18:39 36.923122 -118.216785 210 7496ft 140kts
01-Apr-16 18:40 36.889470 -118.243203 210 6537ft 147kts
01-Apr-16 18:41 36.851175 -118.241069 169 5519ft 134kts
01-Apr-16 18:42 36.820430 -118.220369 141 4626ft 119kts
01-Apr-16 18:43 36.796149 -118.204764 143 4522ft 98kts
01-Apr-16 18:44 36.808503 -118.200666 333 3969ft 94kts
01-Apr-16 18:47 36.809724 -118.201450 334 3909ft 0kts
01-Apr-16 18:48 36.809724 -118.201450 334 3909ft 0kts

Navigation Log

Ident Type
Flight plan parsing failed, navigation log unavailable